Big Bear Station Historical Data
 
Daily Summary for April 24, 2019 Units:  English    Metric   Both
Next Day »
Daily Weekly Monthly Yearly Custom
  Current: High: Low: Average:
Temperature: 50.4 °F 72.9 °F 34.9 °F 53.4 °F
Dew Point: 33.9 °F 45.4 °F 29.1 °F 35.9 °F
Humidity: 53% 86% 26% 57%
Wind Speed: 0.0mph 5.8mph 0.0mph 1.4mph
Wind Gust: -999.0mph -999.0mph - -
WindCalm - - West
Pressure: 23.57 in 23.59 in 23.54 in -
Precipitation: 0.00 in      
Historical Graphs
 
 
Tabular Data for April 24, 2019
Time Temperature Dew Point Pressure Wind Wind Speed Wind Gust Humidity Rainfall Rate (Hourly)
00:14 39.6 °F 31.3 °F 23.57 in Calm   -999.0 mph 72% 0.00 in
00:30 39.0 °F 31.4 °F 23.57 in Calm   -999.0 mph 74% 0.00 in
00:45 38.8 °F 31.6 °F 23.57 in Calm   -999.0 mph 75% 0.00 in
01:00 38.5 °F 29.9 °F 23.56 in Calm   -999.0 mph 71% 0.00 in
01:15 38.1 °F 30.5 °F 23.56 in Calm   -999.0 mph 74% 0.00 in
01:30 37.8 °F 29.9 °F 23.56 in Calm   -999.0 mph 73% 0.00 in
01:46 37.9 °F 31.0 °F 23.56 in Calm   -999.0 mph 76% 0.00 in
02:01 37.6 °F 30.7 °F 23.56 in Calm   -999.0 mph 76% 0.00 in
02:16 37.2 °F 30.3 °F 23.56 in Calm   -999.0 mph 76% 0.00 in
02:31 37.2 °F 30.0 °F 23.56 in Calm   -999.0 mph 75% 0.00 in
02:46 36.9 °F 30.7 °F 23.56 in Calm   -999.0 mph 78% 0.00 in
03:02 36.7 °F 30.8 °F 23.56 in Calm   -999.0 mph 79% 0.00 in
03:17 36.3 °F 30.7 °F 23.56 in Calm   -999.0 mph 80% 0.00 in
03:32 36.0 °F 30.4 °F 23.56 in Calm   -999.0 mph 80% 0.00 in
03:47 36.3 °F 31.0 °F 23.56 in Calm   -999.0 mph 81% 0.00 in
04:02 36.1 °F 31.7 °F 23.56 in Calm   -999.0 mph 84% 0.00 in
04:18 36.1 °F 31.7 °F 23.56 in Calm   -999.0 mph 84% 0.00 in
04:33 36.0 °F 31.3 °F 23.56 in Calm   -999.0 mph 83% 0.00 in
04:48 35.8 °F 31.4 °F 23.56 in Calm   -999.0 mph 84% 0.00 in
05:03 35.8 °F 31.4 °F 23.56 in Calm   -999.0 mph 84% 0.00 in
05:19 35.4 °F 30.8 °F 23.56 in Calm   -999.0 mph 83% 0.00 in
05:34 35.2 °F 30.9 °F 23.56 in Calm   -999.0 mph 84% 0.00 in
05:49 34.9 °F 30.9 °F 23.57 in Calm   -999.0 mph 85% 0.00 in
06:04 35.1 °F 31.3 °F 23.57 in Calm   -999.0 mph 86% 0.00 in
06:19 35.1 °F 31.3 °F 23.58 in Calm   -999.0 mph 86% 0.00 in
06:35 35.1 °F 31.3 °F 23.58 in Calm   -999.0 mph 86% 0.00 in
06:50 35.8 °F 31.4 °F 23.58 in Calm   -999.0 mph 84% 0.00 in
07:05 35.6 °F 31.5 °F 23.59 in Calm   -999.0 mph 85% 0.00 in
07:20 35.8 °F 31.7 °F 23.59 in Calm   -999.0 mph 85% 0.00 in
07:35 36.7 °F 32.9 °F 23.59 in Calm   -999.0 mph 86% 0.00 in
07:51 37.6 °F 33.5 °F 23.59 in Calm   -999.0 mph 85% 0.00 in
08:06 39.6 °F 34.6 °F 23.59 in Calm   -999.0 mph 82% 0.00 in
08:21 41.9 °F 34.9 °F 23.59 in Calm   -999.0 mph 76% 0.00 in
08:36 43.5 °F 35.4 °F 23.59 in Calm   -999.0 mph 73% 0.00 in
08:51 46.2 °F 37.3 °F 23.59 in Calm   -999.0 mph 71% 0.00 in
09:07 50.0 °F 39.9 °F 23.59 in Calm   -999.0 mph 68% 0.00 in
09:22 53.2 °F 37.0 °F 23.59 in Calm   -999.0 mph 54% 0.00 in
09:37 55.8 °F 31.8 °F 23.59 in Calm   -999.0 mph 40% 0.00 in
09:52 57.2 °F 29.1 °F 23.59 in Calm   -999.0 mph 34% 0.00 in
10:08 59.7 °F 29.8 °F 23.59 in NE 3.7 mph -999.0 mph 32% 0.00 in
10:23 61.5 °F 31.4 °F 23.59 in Calm   -999.0 mph 32% 0.00 in
10:39 64.2 °F 31.3 °F 23.59 in WNW 2.7 mph -999.0 mph 29% 0.00 in
10:55 65.7 °F 31.7 °F 23.59 in Calm   -999.0 mph 28% 0.00 in
11:10 67.8 °F 36.1 °F 23.59 in WNW 4.7 mph -999.0 mph 31% 0.00 in
11:25 67.3 °F 32.2 °F 23.59 in NNW 4.7 mph -999.0 mph 27% 0.00 in
11:41 68.7 °F 32.4 °F 23.59 in Calm   -999.0 mph 26% 0.00 in
11:56 68.9 °F 33.5 °F 23.59 in ESE 1.7 mph -999.0 mph 27% 0.00 in
12:12 68.9 °F 34.4 °F 23.58 in Calm   -999.0 mph 28% 0.00 in
12:27 71.1 °F 36.3 °F 23.58 in North 1.1 mph -999.0 mph 28% 0.00 in
12:42 71.4 °F 35.7 °F 23.57 in NE 3.2 mph -999.0 mph 27% 0.00 in
12:58 72.1 °F 40.6 °F 23.58 in NW 4.7 mph -999.0 mph 32% 0.00 in
13:13 72.0 °F 37.1 °F 23.57 in WSW 3.2 mph -999.0 mph 28% 0.00 in
13:28 72.3 °F 38.3 °F 23.57 in NW 2.7 mph -999.0 mph 29% 0.00 in
13:43 72.7 °F 41.1 °F 23.57 in NW 4.7 mph -999.0 mph 32% 0.00 in
13:59 72.9 °F 42.9 °F 23.57 in WNW 4.7 mph -999.0 mph 34% 0.00 in
14:14 72.3 °F 40.0 °F 23.57 in NE 3.7 mph -999.0 mph 31% 0.00 in
14:29 71.6 °F 43.2 °F 23.56 in WNW 5.3 mph -999.0 mph 36% 0.00 in
14:45 72.1 °F 39.8 °F 23.56 in North 4.2 mph -999.0 mph 31% 0.00 in
15:00 71.4 °F 44.5 °F 23.56 in NW 4.7 mph -999.0 mph 38% 0.00 in
15:15 71.2 °F 43.6 °F 23.56 in NNW 4.7 mph -999.0 mph 37% 0.00 in
15:30 69.4 °F 43.4 °F 23.55 in North 5.3 mph -999.0 mph 39% 0.00 in
15:45 69.8 °F 43.0 °F 23.55 in WNW 4.2 mph -999.0 mph 38% 0.00 in
16:01 69.4 °F 44.0 °F 23.55 in WNW 2.7 mph -999.0 mph 40% 0.00 in
16:16 69.3 °F 43.9 °F 23.55 in NW 4.7 mph -999.0 mph 40% 0.00 in
16:31 68.9 °F 42.9 °F 23.55 in North 5.3 mph -999.0 mph 39% 0.00 in
16:46 69.4 °F 42.0 °F 23.55 in WNW 2.7 mph -999.0 mph 37% 0.00 in
17:02 71.2 °F 42.1 °F 23.55 in NW 4.2 mph -999.0 mph 35% 0.00 in
17:17 71.8 °F 42.7 °F 23.55 in SE 3.2 mph -999.0 mph 35% 0.00 in
17:32 71.1 °F 44.9 °F 23.55 in West 5.8 mph -999.0 mph 39% 0.00 in
17:48 68.9 °F 44.2 °F 23.55 in SSE 3.7 mph -999.0 mph 41% 0.00 in
18:03 70.2 °F 45.4 °F 23.55 in WNW 3.7 mph -999.0 mph 41% 0.00 in
18:18 67.5 °F 44.8 °F 23.55 in Calm   -999.0 mph 44% 0.00 in
18:34 64.0 °F 44.5 °F 23.54 in WNW 2.7 mph -999.0 mph 49% 0.00 in
18:49 61.0 °F 43.7 °F 23.55 in ESE 4.2 mph -999.0 mph 53% 0.00 in
19:04 59.4 °F 43.2 °F 23.55 in Calm   -999.0 mph 55% 0.00 in
19:19 57.6 °F 42.5 °F 23.55 in Calm   -999.0 mph 57% 0.00 in
19:34 56.7 °F 42.1 °F 23.55 in Calm   -999.0 mph 58% 0.00 in
19:50 54.5 °F 41.7 °F 23.56 in Calm   -999.0 mph 62% 0.00 in
20:05 53.8 °F 39.4 °F 23.56 in Calm   -999.0 mph 58% 0.00 in
20:21 53.1 °F 35.9 °F 23.56 in Calm   -999.0 mph 52% 0.00 in
20:36 52.0 °F 34.4 °F 23.56 in Calm   -999.0 mph 51% 0.00 in
20:51 51.1 °F 33.6 °F 23.57 in Calm   -999.0 mph 51% 0.00 in
21:06 50.4 °F 33.9 °F 23.57 in Calm   -999.0 mph 53% 0.00 in
Big Bear CA Weather